sensor_id;sensor_type;location;lat;lon;timestamp;P1;durP1;ratioP1;P2;durP2;ratioP2
7917;SDS011;4004;42.624;23.386;2022-11-21T00:01:46;9.63;;;6.97;;
7917;SDS011;4004;42.624;23.386;2022-11-21T00:04:13;7.67;;;6.13;;
7917;SDS011;4004;42.624;23.386;2022-11-21T00:06:39;5.97;;;5.33;;
7917;SDS011;4004;42.624;23.386;2022-11-21T00:09:06;9.13;;;6.67;;
7917;SDS011;4004;42.624;23.386;2022-11-21T00:11:33;6.40;;;5.80;;
7917;SDS011;4004;42.624;23.386;2022-11-21T00:13:59;5.00;;;4.47;;
7917;SDS011;4004;42.624;23.386;2022-11-21T00:16:28;5.40;;;3.93;;
7917;SDS011;4004;42.624;23.386;2022-11-21T00:18:54;6.23;;;4.70;;
7917;SDS011;4004;42.624;23.386;2022-11-21T00:21:21;6.07;;;4.50;;
7917;SDS011;4004;42.624;23.386;2022-11-21T00:23:48;5.23;;;4.73;;
7917;SDS011;4004;42.624;23.386;2022-11-21T00:26:15;4.40;;;4.00;;
7917;SDS011;4004;42.624;23.386;2022-11-21T00:28:42;4.03;;;3.63;;
7917;SDS011;4004;42.624;23.386;2022-11-21T00:31:16;6.90;;;3.40;;
7917;SDS011;4004;42.624;23.386;2022-11-21T00:33:45;4.13;;;2.93;;
7917;SDS011;4004;42.624;23.386;2022-11-21T00:36:12;4.80;;;2.80;;
7917;SDS011;4004;42.624;23.386;2022-11-21T00:38:39;3.27;;;2.70;;
7917;SDS011;4004;42.624;23.386;2022-11-21T00:41:05;3.67;;;2.80;;
7917;SDS011;4004;42.624;23.386;2022-11-21T00:43:32;3.00;;;2.47;;
7917;SDS011;4004;42.624;23.386;2022-11-21T00:45:59;4.67;;;2.40;;
7917;SDS011;4004;42.624;23.386;2022-11-21T00:48:27;6.17;;;2.43;;
7917;SDS011;4004;42.624;23.386;2022-11-21T00:50:57;4.97;;;2.40;;
7917;SDS011;4004;42.624;23.386;2022-11-21T00:53:25;4.97;;;1.93;;
7917;SDS011;4004;42.624;23.386;2022-11-21T00:55:51;5.47;;;1.90;;
7917;SDS011;4004;42.624;23.386;2022-11-21T00:58:18;2.57;;;1.87;;
7917;SDS011;4004;42.624;23.386;2022-11-21T01:00:45;3.97;;;1.90;;
7917;SDS011;4004;42.624;23.386;2022-11-21T01:03:11;3.43;;;2.60;;
7917;SDS011;4004;42.624;23.386;2022-11-21T01:05:38;3.07;;;2.60;;
7917;SDS011;4004;42.624;23.386;2022-11-21T01:08:06;4.17;;;3.00;;
7917;SDS011;4004;42.624;23.386;2022-11-21T01:10:33;3.10;;;2.67;;
7917;SDS011;4004;42.624;23.386;2022-11-21T01:13:00;5.23;;;2.70;;
7917;SDS011;4004;42.624;23.386;2022-11-21T01:15:27;4.23;;;3.83;;
7917;SDS011;4004;42.624;23.386;2022-11-21T01:17:54;7.83;;;3.80;;
7917;SDS011;4004;42.624;23.386;2022-11-21T01:20:20;5.17;;;3.90;;
7917;SDS011;4004;42.624;23.386;2022-11-21T01:22:47;6.87;;;3.93;;
7917;SDS011;4004;42.624;23.386;2022-11-21T01:25:15;6.83;;;4.23;;
7917;SDS011;4004;42.624;23.386;2022-11-21T01:27:42;3.00;;;2.20;;
7917;SDS011;4004;42.624;23.386;2022-11-21T01:30:09;5.37;;;2.50;;
7917;SDS011;4004;42.624;23.386;2022-11-21T01:32:37;4.33;;;2.57;;
7917;SDS011;4004;42.624;23.386;2022-11-21T01:35:04;7.57;;;2.70;;
7917;SDS011;4004;42.624;23.386;2022-11-21T01:37:31;2.80;;;1.80;;
7917;SDS011;4004;42.624;23.386;2022-11-21T01:39:58;6.30;;;2.30;;
7917;SDS011;4004;42.624;23.386;2022-11-21T01:42:26;4.80;;;2.63;;
7917;SDS011;4004;42.624;23.386;2022-11-21T01:44:53;4.80;;;2.20;;
7917;SDS011;4004;42.624;23.386;2022-11-21T01:47:19;3.90;;;1.80;;
7917;SDS011;4004;42.624;23.386;2022-11-21T01:49:47;3.67;;;2.00;;
7917;SDS011;4004;42.624;23.386;2022-11-21T01:52:17;1.30;;;1.20;;
7917;SDS011;4004;42.624;23.386;2022-11-21T01:54:47;2.23;;;1.63;;
7917;SDS011;4004;42.624;23.386;2022-11-21T01:57:18;2.07;;;1.30;;
7917;SDS011;4004;42.624;23.386;2022-11-21T01:59:51;4.63;;;1.47;;
7917;SDS011;4004;42.624;23.386;2022-11-21T02:02:24;2.73;;;1.30;;
7917;SDS011;4004;42.624;23.386;2022-11-21T02:04:54;3.83;;;1.33;;
7917;SDS011;4004;42.624;23.386;2022-11-21T02:07:22;2.53;;;1.07;;
7917;SDS011;4004;42.624;23.386;2022-11-21T02:09:50;1.50;;;1.40;;
7917;SDS011;4004;42.624;23.386;2022-11-21T02:12:22;1.93;;;1.50;;
7917;SDS011;4004;42.624;23.386;2022-11-21T02:14:53;2.87;;;1.40;;
7917;SDS011;4004;42.624;23.386;2022-11-21T02:17:21;2.03;;;1.30;;
7917;SDS011;4004;42.624;23.386;2022-11-21T02:19:49;2.17;;;1.67;;
7917;SDS011;4004;42.624;23.386;2022-11-21T02:22:23;4.17;;;1.37;;
7917;SDS011;4004;42.624;23.386;2022-11-21T02:24:59;4.03;;;1.57;;
7917;SDS011;4004;42.624;23.386;2022-11-21T02:27:27;4.20;;;1.93;;
7917;SDS011;4004;42.624;23.386;2022-11-21T02:29:54;2.37;;;1.33;;
7917;SDS011;4004;42.624;23.386;2022-11-21T02:32:21;1.50;;;1.40;;
7917;SDS011;4004;42.624;23.386;2022-11-21T02:34:49;4.17;;;1.60;;
7917;SDS011;4004;42.624;23.386;2022-11-21T02:37:16;2.17;;;1.40;;
7917;SDS011;4004;42.624;23.386;2022-11-21T02:39:43;2.07;;;1.53;;
7917;SDS011;4004;42.624;23.386;2022-11-21T02:42:15;2.90;;;1.67;;
7917;SDS011;4004;42.624;23.386;2022-11-21T02:44:48;2.77;;;1.63;;
7917;SDS011;4004;42.624;23.386;2022-11-21T02:47:21;3.43;;;1.80;;
7917;SDS011;4004;42.624;23.386;2022-11-21T02:49:49;4.00;;;1.90;;
7917;SDS011;4004;42.624;23.386;2022-11-21T02:52:21;2.47;;;1.90;;
7917;SDS011;4004;42.624;23.386;2022-11-21T02:54:48;2.07;;;1.60;;
7917;SDS011;4004;42.624;23.386;2022-11-21T02:57:16;6.90;;;1.73;;
7917;SDS011;4004;42.624;23.386;2022-11-21T02:59:43;2.40;;;2.20;;
7917;SDS011;4004;42.624;23.386;2022-11-21T03:02:10;2.37;;;1.80;;
7917;SDS011;4004;42.624;23.386;2022-11-21T03:04:36;3.47;;;2.00;;
7917;SDS011;4004;42.624;23.386;2022-11-21T03:07:03;4.70;;;1.77;;
7917;SDS011;4004;42.624;23.386;2022-11-21T03:09:30;3.53;;;2.20;;
7917;SDS011;4004;42.624;23.386;2022-11-21T03:11:56;1.60;;;1.50;;
7917;SDS011;4004;42.624;23.386;2022-11-21T03:14:25;2.33;;;1.80;;
7917;SDS011;4004;42.624;23.386;2022-11-21T03:16:51;5.63;;;2.10;;
7917;SDS011;4004;42.624;23.386;2022-11-21T03:19:18;5.53;;;2.17;;
7917;SDS011;4004;42.624;23.386;2022-11-21T03:21:45;4.70;;;1.90;;
7917;SDS011;4004;42.624;23.386;2022-11-21T03:24:11;2.47;;;1.80;;
7917;SDS011;4004;42.624;23.386;2022-11-21T03:26:38;4.17;;;1.80;;
7917;SDS011;4004;42.624;23.386;2022-11-21T03:29:05;3.07;;;1.93;;
7917;SDS011;4004;42.624;23.386;2022-11-21T03:31:33;5.17;;;2.00;;
7917;SDS011;4004;42.624;23.386;2022-11-21T03:34:00;3.73;;;1.83;;
7917;SDS011;4004;42.624;23.386;2022-11-21T03:36:27;5.73;;;2.10;;
7917;SDS011;4004;42.624;23.386;2022-11-21T03:38:54;5.33;;;1.63;;
7917;SDS011;4004;42.624;23.386;2022-11-21T03:41:21;6.83;;;2.30;;
7917;SDS011;4004;42.624;23.386;2022-11-21T03:43:57;5.73;;;1.87;;
7917;SDS011;4004;42.624;23.386;2022-11-21T03:46:24;3.33;;;1.67;;
7917;SDS011;4004;42.624;23.386;2022-11-21T03:48:52;4.17;;;2.00;;
7917;SDS011;4004;42.624;23.386;2022-11-21T03:51:19;4.93;;;2.10;;
7917;SDS011;4004;42.624;23.386;2022-11-21T03:53:46;6.63;;;1.83;;
7917;SDS011;4004;42.624;23.386;2022-11-21T03:56:13;8.17;;;2.43;;
7917;SDS011;4004;42.624;23.386;2022-11-21T03:58:40;5.80;;;2.20;;
7917;SDS011;4004;42.624;23.386;2022-11-21T04:01:07;4.63;;;1.97;;
7917;SDS011;4004;42.624;23.386;2022-11-21T04:03:34;7.87;;;2.20;;
7917;SDS011;4004;42.624;23.386;2022-11-21T04:06:02;7.00;;;2.30;;
7917;SDS011;4004;42.624;23.386;2022-11-21T04:08:29;5.07;;;2.10;;
7917;SDS011;4004;42.624;23.386;2022-11-21T04:10:56;5.17;;;2.00;;
7917;SDS011;4004;42.624;23.386;2022-11-21T04:13:23;3.90;;;1.83;;
7917;SDS011;4004;42.624;23.386;2022-11-21T04:15:50;4.77;;;2.00;;
7917;SDS011;4004;42.624;23.386;2022-11-21T04:18:17;6.67;;;2.33;;
7917;SDS011;4004;42.624;23.386;2022-11-21T04:20:43;4.07;;;1.93;;
7917;SDS011;4004;42.624;23.386;2022-11-21T04:23:12;4.13;;;2.07;;
7917;SDS011;4004;42.624;23.386;2022-11-21T04:25:39;9.07;;;2.47;;
7917;SDS011;4004;42.624;23.386;2022-11-21T04:28:06;2.43;;;2.03;;
7917;SDS011;4004;42.624;23.386;2022-11-21T04:30:32;4.37;;;2.30;;
7917;SDS011;4004;42.624;23.386;2022-11-21T04:33:00;4.77;;;2.67;;
7917;SDS011;4004;42.624;23.386;2022-11-21T04:35:26;5.43;;;2.37;;
7917;SDS011;4004;42.624;23.386;2022-11-21T04:37:53;4.87;;;2.40;;
7917;SDS011;4004;42.624;23.386;2022-11-21T04:40:21;6.63;;;2.80;;
7917;SDS011;4004;42.624;23.386;2022-11-21T04:42:48;7.77;;;2.80;;
7917;SDS011;4004;42.624;23.386;2022-11-21T04:45:15;4.27;;;2.63;;
7917;SDS011;4004;42.624;23.386;2022-11-21T04:47:43;3.30;;;2.00;;
7917;SDS011;4004;42.624;23.386;2022-11-21T04:50:11;6.90;;;2.37;;
7917;SDS011;4004;42.624;23.386;2022-11-21T04:52:39;8.27;;;2.60;;
7917;SDS011;4004;42.624;23.386;2022-11-21T04:55:07;7.63;;;2.60;;
7917;SDS011;4004;42.624;23.386;2022-11-21T04:57:35;3.37;;;2.20;;
7917;SDS011;4004;42.624;23.386;2022-11-21T05:00:06;6.83;;;2.80;;
7917;SDS011;4004;42.624;23.386;2022-11-21T05:02:33;5.83;;;2.60;;
7917;SDS011;4004;42.624;23.386;2022-11-21T05:05:00;3.10;;;2.20;;
7917;SDS011;4004;42.624;23.386;2022-11-21T05:07:27;5.57;;;2.30;;
7917;SDS011;4004;42.624;23.386;2022-11-21T05:09:53;3.27;;;2.13;;
7917;SDS011;4004;42.624;23.386;2022-11-21T05:12:20;5.27;;;2.33;;
7917;SDS011;4004;42.624;23.386;2022-11-21T05:15:06;3.77;;;2.50;;
7917;SDS011;4004;42.624;23.386;2022-11-21T05:17:33;3.37;;;2.43;;
7917;SDS011;4004;42.624;23.386;2022-11-21T05:20:00;6.53;;;2.70;;
7917;SDS011;4004;42.624;23.386;2022-11-21T05:22:28;4.63;;;2.70;;
7917;SDS011;4004;42.624;23.386;2022-11-21T05:24:54;5.70;;;2.40;;
7917;SDS011;4004;42.624;23.386;2022-11-21T05:27:21;5.97;;;2.20;;
7917;SDS011;4004;42.624;23.386;2022-11-21T05:29:48;3.17;;;2.20;;
7917;SDS011;4004;42.624;23.386;2022-11-21T05:32:16;3.20;;;2.17;;
7917;SDS011;4004;42.624;23.386;2022-11-21T05:34:43;3.30;;;2.20;;
7917;SDS011;4004;42.624;23.386;2022-11-21T05:37:09;5.53;;;3.50;;
7917;SDS011;4004;42.624;23.386;2022-11-21T05:39:36;9.80;;;4.43;;
7917;SDS011;4004;42.624;23.386;2022-11-21T05:42:03;6.60;;;4.67;;
7917;SDS011;4004;42.624;23.386;2022-11-21T05:44:32;2.40;;;1.73;;
7917;SDS011;4004;42.624;23.386;2022-11-21T05:46:58;3.70;;;2.40;;
7917;SDS011;4004;42.624;23.386;2022-11-21T05:49:27;4.80;;;2.90;;
7917;SDS011;4004;42.624;23.386;2022-11-21T05:51:53;3.77;;;2.07;;
7917;SDS011;4004;42.624;23.386;2022-11-21T05:54:20;4.47;;;2.33;;
7917;SDS011;4004;42.624;23.386;2022-11-21T05:56:47;4.60;;;2.70;;
7917;SDS011;4004;42.624;23.386;2022-11-21T05:59:13;3.57;;;2.20;;
7917;SDS011;4004;42.624;23.386;2022-11-21T06:01:40;3.53;;;2.37;;
7917;SDS011;4004;42.624;23.386;2022-11-21T06:04:24;8.47;;;3.57;;
7917;SDS011;4004;42.624;23.386;2022-11-21T06:06:52;11.83;;;8.47;;
7917;SDS011;4004;42.624;23.386;2022-11-21T06:09:19;9.83;;;3.50;;
7917;SDS011;4004;42.624;23.386;2022-11-21T06:11:45;5.97;;;3.00;;
7917;SDS011;4004;42.624;23.386;2022-11-21T06:14:12;5.87;;;2.77;;
7917;SDS011;4004;42.624;23.386;2022-11-21T06:16:39;4.43;;;2.47;;
7917;SDS011;4004;42.624;23.386;2022-11-21T06:19:06;4.07;;;2.47;;
7917;SDS011;4004;42.624;23.386;2022-11-21T06:21:32;4.77;;;2.63;;
7917;SDS011;4004;42.624;23.386;2022-11-21T06:24:02;4.87;;;2.20;;
7917;SDS011;4004;42.624;23.386;2022-11-21T06:26:29;6.07;;;2.00;;
7917;SDS011;4004;42.624;23.386;2022-11-21T06:28:56;4.77;;;1.93;;
7917;SDS011;4004;42.624;23.386;2022-11-21T06:31:23;2.90;;;2.17;;
7917;SDS011;4004;42.624;23.386;2022-11-21T06:33:51;4.33;;;2.00;;
7917;SDS011;4004;42.624;23.386;2022-11-21T06:36:19;5.27;;;1.93;;
7917;SDS011;4004;42.624;23.386;2022-11-21T06:38:46;2.60;;;1.80;;
7917;SDS011;4004;42.624;23.386;2022-11-21T06:41:14;3.13;;;1.90;;
7917;SDS011;4004;42.624;23.386;2022-11-21T06:43:43;3.47;;;2.20;;
7917;SDS011;4004;42.624;23.386;2022-11-21T06:46:10;1.70;;;1.50;;
7917;SDS011;4004;42.624;23.386;2022-11-21T06:48:38;2.77;;;2.17;;
7917;SDS011;4004;42.624;23.386;2022-11-21T06:51:06;1.60;;;1.50;;
7917;SDS011;4004;42.624;23.386;2022-11-21T06:53:33;2.27;;;1.90;;
7917;SDS011;4004;42.624;23.386;2022-11-21T06:56:00;2.43;;;1.87;;
7917;SDS011;4004;42.624;23.386;2022-11-21T06:58:29;2.00;;;1.80;;
7917;SDS011;4004;42.624;23.386;2022-11-21T07:00:56;2.03;;;1.70;;
7917;SDS011;4004;42.624;23.386;2022-11-21T07:03:23;3.27;;;2.40;;
7917;SDS011;4004;42.624;23.386;2022-11-21T07:05:50;2.50;;;2.20;;
7917;SDS011;4004;42.624;23.386;2022-11-21T07:08:22;1.60;;;1.47;;
7917;SDS011;4004;42.624;23.386;2022-11-21T07:10:49;1.63;;;1.30;;
7917;SDS011;4004;42.624;23.386;2022-11-21T07:13:15;2.40;;;1.60;;
7917;SDS011;4004;42.624;23.386;2022-11-21T07:15:49;2.23;;;1.70;;
7917;SDS011;4004;42.624;23.386;2022-11-21T07:18:17;2.23;;;1.90;;
7917;SDS011;4004;42.624;23.386;2022-11-21T07:20:43;3.67;;;2.70;;
7917;SDS011;4004;42.624;23.386;2022-11-21T07:23:10;10.00;;;6.50;;
7917;SDS011;4004;42.624;23.386;2022-11-21T07:25:37;3.23;;;1.90;;
7917;SDS011;4004;42.624;23.386;2022-11-21T07:28:04;2.90;;;1.80;;
7917;SDS011;4004;42.624;23.386;2022-11-21T07:30:33;1.40;;;1.30;;
7917;SDS011;4004;42.624;23.386;2022-11-21T07:33:02;1.60;;;1.30;;
7917;SDS011;4004;42.624;23.386;2022-11-21T07:35:30;3.10;;;1.60;;
7917;SDS011;4004;42.624;23.386;2022-11-21T07:37:58;2.20;;;1.60;;
7917;SDS011;4004;42.624;23.386;2022-11-21T07:40:25;1.80;;;1.70;;
7917;SDS011;4004;42.624;23.386;2022-11-21T07:42:52;1.60;;;1.00;;
7917;SDS011;4004;42.624;23.386;2022-11-21T07:45:19;1.87;;;1.13;;
7917;SDS011;4004;42.624;23.386;2022-11-21T07:47:46;2.50;;;1.87;;
7917;SDS011;4004;42.624;23.386;2022-11-21T07:50:14;1.93;;;1.77;;
7917;SDS011;4004;42.624;23.386;2022-11-21T07:52:41;2.27;;;1.47;;
7917;SDS011;4004;42.624;23.386;2022-11-21T07:55:08;1.20;;;1.10;;
7917;SDS011;4004;42.624;23.386;2022-11-21T07:57:35;1.40;;;1.30;;
7917;SDS011;4004;42.624;23.386;2022-11-21T08:00:02;1.87;;;1.50;;
7917;SDS011;4004;42.624;23.386;2022-11-21T08:02:29;1.30;;;1.20;;
7917;SDS011;4004;42.624;23.386;2022-11-21T08:04:55;1.70;;;1.60;;
7917;SDS011;4004;42.624;23.386;2022-11-21T08:07:24;2.10;;;1.90;;
7917;SDS011;4004;42.624;23.386;2022-11-21T08:09:50;2.00;;;1.70;;
7917;SDS011;4004;42.624;23.386;2022-11-21T08:12:17;1.80;;;1.70;;
7917;SDS011;4004;42.624;23.386;2022-11-21T08:14:44;1.87;;;1.70;;
7917;SDS011;4004;42.624;23.386;2022-11-21T08:17:10;1.20;;;1.03;;
7917;SDS011;4004;42.624;23.386;2022-11-21T08:19:38;2.77;;;1.40;;
7917;SDS011;4004;42.624;23.386;2022-11-21T08:22:04;2.47;;;1.50;;
7917;SDS011;4004;42.624;23.386;2022-11-21T08:24:32;2.13;;;1.30;;
7917;SDS011;4004;42.624;23.386;2022-11-21T08:26:59;3.38;;;1.58;;
7917;SDS011;4004;42.624;23.386;2022-11-21T08:29:26;1.57;;;1.33;;
7917;SDS011;4004;42.624;23.386;2022-11-21T08:31:52;1.53;;;1.33;;
7917;SDS011;4004;42.624;23.386;2022-11-21T08:34:19;2.63;;;1.53;;
7917;SDS011;4004;42.624;23.386;2022-11-21T08:36:46;1.63;;;1.40;;
7917;SDS011;4004;42.624;23.386;2022-11-21T08:39:13;1.50;;;1.40;;
7917;SDS011;4004;42.624;23.386;2022-11-21T08:41:41;1.30;;;1.20;;
7917;SDS011;4004;42.624;23.386;2022-11-21T08:44:25;1.70;;;1.60;;
7917;SDS011;4004;42.624;23.386;2022-11-21T08:46:52;1.53;;;1.30;;
7917;SDS011;4004;42.624;23.386;2022-11-21T08:49:19;1.70;;;1.57;;
7917;SDS011;4004;42.624;23.386;2022-11-21T08:51:46;4.83;;;2.03;;
7917;SDS011;4004;42.624;23.386;2022-11-21T08:54:13;1.50;;;1.23;;
7917;SDS011;4004;42.624;23.386;2022-11-21T08:56:42;2.00;;;1.70;;
7917;SDS011;4004;42.624;23.386;2022-11-21T08:59:09;1.93;;;1.80;;
7917;SDS011;4004;42.624;23.386;2022-11-21T09:01:35;3.87;;;1.80;;
7917;SDS011;4004;42.624;23.386;2022-11-21T09:04:02;2.97;;;2.10;;
7917;SDS011;4004;42.624;23.386;2022-11-21T09:06:29;2.00;;;1.53;;
7917;SDS011;4004;42.624;23.386;2022-11-21T09:08:56;2.90;;;1.67;;
7917;SDS011;4004;42.624;23.386;2022-11-21T09:11:23;1.67;;;1.57;;
7917;SDS011;4004;42.624;23.386;2022-11-21T09:13:51;1.60;;;1.47;;
7917;SDS011;4004;42.624;23.386;2022-11-21T09:16:36;2.10;;;1.67;;
7917;SDS011;4004;42.624;23.386;2022-11-21T09:19:21;3.30;;;1.83;;
7917;SDS011;4004;42.624;23.386;2022-11-21T09:21:48;2.60;;;1.83;;
7917;SDS011;4004;42.624;23.386;2022-11-21T09:24:15;2.30;;;1.53;;
7917;SDS011;4004;42.624;23.386;2022-11-21T09:26:42;2.13;;;1.53;;
7917;SDS011;4004;42.624;23.386;2022-11-21T09:29:11;1.70;;;1.60;;
7917;SDS011;4004;42.624;23.386;2022-11-21T09:31:39;2.17;;;1.80;;
7917;SDS011;4004;42.624;23.386;2022-11-21T09:34:06;2.50;;;1.50;;
7917;SDS011;4004;42.624;23.386;2022-11-21T09:36:33;2.43;;;1.50;;
7917;SDS011;4004;42.624;23.386;2022-11-21T09:38:59;2.20;;;2.00;;
7917;SDS011;4004;42.624;23.386;2022-11-21T09:41:28;1.70;;;1.60;;
7917;SDS011;4004;42.624;23.386;2022-11-21T09:47:19;1.70;;;1.60;;
7917;SDS011;4004;42.624;23.386;2022-11-21T09:49:51;2.00;;;1.90;;
7917;SDS011;4004;42.624;23.386;2022-11-21T09:52:24;1.53;;;1.43;;
7917;SDS011;4004;42.624;23.386;2022-11-21T09:54:56;1.83;;;1.70;;
7917;SDS011;4004;42.624;23.386;2022-11-21T09:57:27;2.73;;;1.87;;
7917;SDS011;4004;42.624;23.386;2022-11-21T09:59:55;3.30;;;1.57;;
7917;SDS011;4004;42.624;23.386;2022-11-21T10:02:22;2.23;;;1.90;;
7917;SDS011;4004;42.624;23.386;2022-11-21T10:04:50;2.27;;;1.90;;
7917;SDS011;4004;42.624;23.386;2022-11-21T10:07:20;2.00;;;1.73;;
7917;SDS011;4004;42.624;23.386;2022-11-21T10:09:56;1.60;;;1.50;;
7917;SDS011;4004;42.624;23.386;2022-11-21T10:12:36;3.67;;;1.80;;
7917;SDS011;4004;42.624;23.386;2022-11-21T10:15:18;2.37;;;1.87;;
7917;SDS011;4004;42.624;23.386;2022-11-21T10:18:05;1.90;;;1.50;;
7917;SDS011;4004;42.624;23.386;2022-11-21T10:20:53;2.33;;;2.10;;
7917;SDS011;4004;42.624;23.386;2022-11-21T10:23:31;3.23;;;1.90;;
7917;SDS011;4004;42.624;23.386;2022-11-21T10:26:09;3.87;;;1.77;;
7917;SDS011;4004;42.624;23.386;2022-11-21T10:28:41;2.43;;;1.80;;
7917;SDS011;4004;42.624;23.386;2022-11-21T10:31:16;2.10;;;1.90;;
7917;SDS011;4004;42.624;23.386;2022-11-21T10:33:44;2.10;;;1.90;;
7917;SDS011;4004;42.624;23.386;2022-11-21T10:36:12;2.00;;;1.70;;
7917;SDS011;4004;42.624;23.386;2022-11-21T10:38:47;3.10;;;2.40;;
7917;SDS011;4004;42.624;23.386;2022-11-21T10:41:16;4.27;;;2.50;;
7917;SDS011;4004;42.624;23.386;2022-11-21T10:43:49;3.23;;;2.47;;
7917;SDS011;4004;42.624;23.386;2022-11-21T10:46:40;4.00;;;2.90;;
7917;SDS011;4004;42.624;23.386;2022-11-21T10:49:19;5.17;;;3.27;;
7917;SDS011;4004;42.624;23.386;2022-11-21T10:51:48;5.07;;;2.80;;
7917;SDS011;4004;42.624;23.386;2022-11-21T10:54:19;2.80;;;2.60;;
7917;SDS011;4004;42.624;23.386;2022-11-21T10:56:58;4.67;;;3.40;;
7917;SDS011;4004;42.624;23.386;2022-11-21T10:59:31;3.43;;;3.07;;
7917;SDS011;4004;42.624;23.386;2022-11-21T11:02:00;4.60;;;2.80;;
7917;SDS011;4004;42.624;23.386;2022-11-21T11:04:28;3.60;;;3.30;;
7917;SDS011;4004;42.624;23.386;2022-11-21T11:06:56;3.73;;;3.43;;
7917;SDS011;4004;42.624;23.386;2022-11-21T11:09:26;4.83;;;3.60;;
7917;SDS011;4004;42.624;23.386;2022-11-21T11:15:16;4.03;;;3.17;;
7917;SDS011;4004;42.624;23.386;2022-11-21T11:17:46;5.53;;;3.10;;
7917;SDS011;4004;42.624;23.386;2022-11-21T11:20:27;2.90;;;2.63;;
7917;SDS011;4004;42.624;23.386;2022-11-21T11:22:59;3.27;;;2.87;;
7917;SDS011;4004;42.624;23.386;2022-11-21T11:25:41;4.70;;;2.93;;
7917;SDS011;4004;42.624;23.386;2022-11-21T11:28:12;3.03;;;2.53;;
7917;SDS011;4004;42.624;23.386;2022-11-21T11:30:39;4.10;;;3.20;;
7917;SDS011;4004;42.624;23.386;2022-11-21T11:36:04;4.07;;;3.23;;
7917;SDS011;4004;42.624;23.386;2022-11-21T11:38:37;3.70;;;3.10;;
7917;SDS011;4004;42.624;23.386;2022-11-21T11:41:07;3.30;;;2.83;;
7917;SDS011;4004;42.624;23.386;2022-11-21T11:43:45;4.77;;;3.30;;
7917;SDS011;4004;42.624;23.386;2022-11-21T11:46:40;3.50;;;3.20;;
7917;SDS011;4004;42.624;23.386;2022-11-21T11:49:34;5.40;;;2.97;;
7917;SDS011;4004;42.624;23.386;2022-11-21T11:52:20;4.73;;;3.73;;
7917;SDS011;4004;42.624;23.386;2022-11-21T11:54:50;2.90;;;2.70;;
7917;SDS011;4004;42.624;23.386;2022-11-21T11:57:24;4.33;;;3.93;;
7917;SDS011;4004;42.624;23.386;2022-11-21T11:59:57;3.47;;;3.17;;
7917;SDS011;4004;42.624;23.386;2022-11-21T12:02:32;7.03;;;3.20;;
7917;SDS011;4004;42.624;23.386;2022-11-21T12:05:14;5.57;;;3.47;;
7917;SDS011;4004;42.624;23.386;2022-11-21T12:07:49;4.23;;;3.00;;
7917;SDS011;4004;42.624;23.386;2022-11-21T12:10:32;3.60;;;3.00;;
7917;SDS011;4004;42.624;23.386;2022-11-21T12:13:24;3.03;;;2.63;;
7917;SDS011;4004;42.624;23.386;2022-11-21T12:15:53;8.13;;;3.17;;
7917;SDS011;4004;42.624;23.386;2022-11-21T12:18:25;4.00;;;2.77;;
7917;SDS011;4004;42.624;23.386;2022-11-21T12:21:02;4.50;;;2.80;;
7917;SDS011;4004;42.624;23.386;2022-11-21T12:23:35;3.63;;;3.27;;
7917;SDS011;4004;42.624;23.386;2022-11-21T12:26:09;5.13;;;2.63;;
7917;SDS011;4004;42.624;23.386;2022-11-21T12:28:48;4.10;;;2.60;;
7917;SDS011;4004;42.624;23.386;2022-11-21T12:31:24;3.13;;;2.63;;
7917;SDS011;4004;42.624;23.386;2022-11-21T12:34:01;4.90;;;2.43;;
7917;SDS011;4004;42.624;23.386;2022-11-21T12:36:37;3.17;;;2.40;;
7917;SDS011;4004;42.624;23.386;2022-11-21T12:39:26;3.67;;;2.63;;
7917;SDS011;4004;42.624;23.386;2022-11-21T12:42:10;5.03;;;2.40;;
7917;SDS011;4004;42.624;23.386;2022-11-21T12:45:07;2.77;;;2.20;;
7917;SDS011;4004;42.624;23.386;2022-11-21T12:51:01;4.97;;;2.87;;
7917;SDS011;4004;42.624;23.386;2022-11-21T12:54:14;3.27;;;2.47;;
7917;SDS011;4004;42.624;23.386;2022-11-21T12:56:56;5.40;;;2.70;;
7917;SDS011;4004;42.624;23.386;2022-11-21T12:59:33;2.57;;;2.37;;
7917;SDS011;4004;42.624;23.386;2022-11-21T13:02:11;3.10;;;2.53;;
7917;SDS011;4004;42.624;23.386;2022-11-21T13:04:50;3.40;;;2.60;;
7917;SDS011;4004;42.624;23.386;2022-11-21T13:07:20;3.70;;;2.40;;
7917;SDS011;4004;42.624;23.386;2022-11-21T13:09:51;3.38;;;2.40;;
7917;SDS011;4004;42.624;23.386;2022-11-21T13:12:21;3.07;;;2.20;;
7917;SDS011;4004;42.624;23.386;2022-11-21T13:15:00;2.97;;;2.70;;
7917;SDS011;4004;42.624;23.386;2022-11-21T13:17:36;4.07;;;2.43;;
7917;SDS011;4004;42.624;23.386;2022-11-21T13:20:16;3.43;;;2.43;;
7917;SDS011;4004;42.624;23.386;2022-11-21T13:22:52;3.23;;;2.57;;
7917;SDS011;4004;42.624;23.386;2022-11-21T13:28:22;5.00;;;3.07;;
7917;SDS011;4004;42.624;23.386;2022-11-21T13:30:57;3.33;;;2.83;;
7917;SDS011;4004;42.624;23.386;2022-11-21T13:33:44;2.90;;;2.60;;
7917;SDS011;4004;42.624;23.386;2022-11-21T13:36:32;4.83;;;3.13;;
7917;SDS011;4004;42.624;23.386;2022-11-21T13:39:23;3.13;;;2.93;;
7917;SDS011;4004;42.624;23.386;2022-11-21T13:42:04;4.60;;;3.00;;
7917;SDS011;4004;42.624;23.386;2022-11-21T13:44:50;4.40;;;3.60;;
7917;SDS011;4004;42.624;23.386;2022-11-21T13:50:35;3.60;;;3.30;;
7917;SDS011;4004;42.624;23.386;2022-11-21T13:53:26;3.90;;;3.43;;
7917;SDS011;4004;42.624;23.386;2022-11-21T13:56:15;3.80;;;3.50;;
7917;SDS011;4004;42.624;23.386;2022-11-21T13:58:56;5.73;;;4.87;;
7917;SDS011;4004;42.624;23.386;2022-11-21T14:04:52;6.73;;;4.80;;
7917;SDS011;4004;42.624;23.386;2022-11-21T14:07:43;5.23;;;4.73;;
7917;SDS011;4004;42.624;23.386;2022-11-21T14:10:17;5.87;;;4.60;;
7917;SDS011;4004;42.624;23.386;2022-11-21T14:12:55;5.20;;;4.77;;
7917;SDS011;4004;42.624;23.386;2022-11-21T14:15:25;5.20;;;4.70;;
7917;SDS011;4004;42.624;23.386;2022-11-21T14:17:57;5.53;;;4.90;;
7917;SDS011;4004;42.624;23.386;2022-11-21T14:20:26;6.27;;;5.43;;
7917;SDS011;4004;42.624;23.386;2022-11-21T14:22:56;8.73;;;5.30;;
7917;SDS011;4004;42.624;23.386;2022-11-21T14:25:28;5.50;;;4.93;;
7917;SDS011;4004;42.624;23.386;2022-11-21T14:28:00;9.80;;;5.40;;
7917;SDS011;4004;42.624;23.386;2022-11-21T14:30:33;7.20;;;6.47;;
7917;SDS011;4004;42.624;23.386;2022-11-21T14:33:20;6.33;;;5.73;;
7917;SDS011;4004;42.624;23.386;2022-11-21T14:35:48;6.20;;;4.90;;
7917;SDS011;4004;42.624;23.386;2022-11-21T14:38:18;5.67;;;5.17;;
7917;SDS011;4004;42.624;23.386;2022-11-21T14:40:46;6.50;;;4.93;;
7917;SDS011;4004;42.624;23.386;2022-11-21T14:43:27;7.00;;;4.90;;
7917;SDS011;4004;42.624;23.386;2022-11-21T14:45:58;5.87;;;5.20;;
7917;SDS011;4004;42.624;23.386;2022-11-21T14:48:25;6.27;;;5.67;;
7917;SDS011;4004;42.624;23.386;2022-11-21T14:50:53;6.70;;;5.97;;
7917;SDS011;4004;42.624;23.386;2022-11-21T14:53:21;6.90;;;5.33;;
7917;SDS011;4004;42.624;23.386;2022-11-21T14:55:49;7.17;;;6.13;;
7917;SDS011;4004;42.624;23.386;2022-11-21T14:58:17;6.60;;;6.00;;
7917;SDS011;4004;42.624;23.386;2022-11-21T15:01:01;7.40;;;6.30;;
7917;SDS011;4004;42.624;23.386;2022-11-21T15:03:30;7.27;;;6.57;;
7917;SDS011;4004;42.624;23.386;2022-11-21T15:05:57;14.53;;;6.83;;
7917;SDS011;4004;42.624;23.386;2022-11-21T15:08:25;7.47;;;6.50;;
7917;SDS011;4004;42.624;23.386;2022-11-21T15:10:51;6.73;;;5.83;;
7917;SDS011;4004;42.624;23.386;2022-11-21T15:13:20;7.13;;;5.83;;
7917;SDS011;4004;42.624;23.386;2022-11-21T15:15:50;7.17;;;6.43;;
7917;SDS011;4004;42.624;23.386;2022-11-21T15:18:21;6.97;;;6.27;;
7917;SDS011;4004;42.624;23.386;2022-11-21T15:20:48;6.57;;;5.97;;
7917;SDS011;4004;42.624;23.386;2022-11-21T15:23:25;6.07;;;5.47;;
7917;SDS011;4004;42.624;23.386;2022-11-21T15:25:53;6.07;;;4.97;;
7917;SDS011;4004;42.624;23.386;2022-11-21T15:28:20;5.80;;;5.30;;
7917;SDS011;4004;42.624;23.386;2022-11-21T15:30:47;5.53;;;5.03;;
7917;SDS011;4004;42.624;23.386;2022-11-21T15:33:14;5.97;;;5.47;;
7917;SDS011;4004;42.624;23.386;2022-11-21T15:35:48;6.10;;;5.50;;
7917;SDS011;4004;42.624;23.386;2022-11-21T15:38:17;5.87;;;5.27;;
7917;SDS011;4004;42.624;23.386;2022-11-21T15:40:54;6.03;;;5.43;;
7917;SDS011;4004;42.624;23.386;2022-11-21T15:43:34;5.87;;;5.37;;